createdAt,value
2022-10-23T00:01:27.062Z,100501.25
2022-10-23T00:04:28.495Z,100510.00
2022-10-23T00:10:32.216Z,100491.41
2022-10-23T00:13:33.682Z,100487.78
2022-10-23T00:16:35.678Z,100488.75
2022-10-23T00:19:37.076Z,100488.75
2022-10-23T00:22:38.617Z,100491.25
2022-10-23T00:25:40.102Z,100479.69
2022-10-23T00:28:46.763Z,100482.47
2022-10-23T00:31:48.155Z,100480.78
2022-10-23T00:34:51.982Z,100472.50
2022-10-23T00:37:53.390Z,100463.44
2022-10-23T00:40:54.824Z,100461.97
2022-10-23T00:43:56.257Z,100452.34
2022-10-23T00:46:59.096Z,100470.16
2022-10-23T00:50:01.696Z,100469.31
2022-10-23T00:53:04.890Z,100470.16
2022-10-23T00:56:06.684Z,100461.41
2022-10-23T00:59:08.122Z,100452.53
2022-10-23T01:02:09.924Z,100456.09
2022-10-23T01:05:11.822Z,100452.53
2022-10-23T01:08:26.582Z,100446.47
2022-10-23T01:11:37.854Z,100447.22
2022-10-23T01:14:54.821Z,100446.47
2022-10-23T01:17:56.417Z,100450.94
2022-10-23T01:21:05.450Z,100440.47
2022-10-23T01:24:19.478Z,100443.75
2022-10-23T01:27:26.413Z,100439.63
2022-10-23T01:30:29.757Z,100443.31
2022-10-23T01:33:41.241Z,100438.16
2022-10-23T01:36:47.425Z,100438.16
2022-10-23T01:39:54.801Z,100444.38
2022-10-23T01:43:01.327Z,100441.09
2022-10-23T01:46:08.414Z,100428.94
2022-10-23T01:49:14.817Z,100430.72
2022-10-23T01:52:18.299Z,100427.16
2022-10-23T01:55:23.842Z,100419.09
2022-10-23T01:58:28.011Z,100423.56
2022-10-23T02:01:30.990Z,100428.63
2022-10-23T02:04:38.662Z,100410.03
2022-10-23T02:07:40.651Z,100413.69
2022-10-23T02:11:09.629Z,100405.06
2022-10-23T02:14:24.420Z,100407.22
2022-10-23T02:18:00.407Z,100393.19
2022-10-23T02:21:10.126Z,100404.81
2022-10-23T02:24:15.594Z,100413.47
2022-10-23T02:27:30.302Z,100399.44
2022-10-23T02:30:33.384Z,100393.31
2022-10-23T02:33:45.836Z,100395.97
2022-10-23T02:36:47.273Z,100382.88
2022-10-23T02:39:49.161Z,100390.91
2022-10-23T02:43:03.728Z,100393.63
2022-10-23T02:46:18.354Z,100390.22
2022-10-23T02:49:30.978Z,100376.00
2022-10-23T02:52:46.003Z,100374.44
2022-10-23T02:56:02.191Z,100371.66
2022-10-23T02:59:13.698Z,100373.13
2022-10-23T03:02:23.267Z,100366.16
2022-10-23T03:05:29.501Z,100362.03
2022-10-23T03:08:41.813Z,100356.47
2022-10-23T03:11:43.284Z,100349.31
2022-10-23T03:14:44.775Z,100357.28
2022-10-23T03:17:46.180Z,100364.91
2022-10-23T03:20:49.782Z,100368.69
2022-10-23T03:23:51.202Z,100366.97
2022-10-23T03:26:57.872Z,100364.38
2022-10-23T03:30:06.505Z,100363.50
2022-10-23T03:33:09.917Z,100355.78
2022-10-23T03:36:11.346Z,100356.56
2022-10-23T03:39:12.804Z,100358.38
2022-10-23T03:42:14.341Z,100355.72
2022-10-23T03:45:15.811Z,100367.41
2022-10-23T03:48:17.400Z,100364.00
2022-10-23T03:51:19.425Z,100369.31
2022-10-23T03:54:26.292Z,100370.84
2022-10-23T03:57:27.699Z,100378.03
2022-10-23T04:00:29.266Z,100372.91
2022-10-23T04:03:30.758Z,100360.63
2022-10-23T04:06:32.220Z,100367.91
2022-10-23T04:09:33.880Z,100372.50
2022-10-23T04:12:38.077Z,100362.97
2022-10-23T04:15:40.834Z,100361.03
2022-10-23T04:18:42.311Z,100359.47
2022-10-23T04:21:44.850Z,100352.53
2022-10-23T04:24:47.969Z,100361.47
2022-10-23T04:27:52.847Z,100365.31
2022-10-23T04:30:54.870Z,100364.69
2022-10-23T04:33:56.365Z,100355.72
2022-10-23T04:37:05.173Z,100360.16
2022-10-23T04:40:07.409Z,100350.41
2022-10-23T04:43:10.887Z,100344.31
2022-10-23T04:46:14.516Z,100339.56
2022-10-23T04:49:15.946Z,100333.34
2022-10-23T04:52:23.730Z,100327.06
2022-10-23T04:55:59.450Z,100327.00
2022-10-23T04:59:10.280Z,100320.22
2022-10-23T05:02:13.277Z,100334.66
2022-10-23T05:05:15.932Z,100363.03
2022-10-23T05:08:43.726Z,100366.34
2022-10-23T05:11:51.165Z,100366.88
2022-10-23T05:14:53.333Z,100354.78
2022-10-23T05:17:59.922Z,100340.81
2022-10-23T05:21:13.866Z,100345.25
2022-10-23T05:24:15.351Z,100354.06
2022-10-23T05:27:28.060Z,100355.63
2022-10-23T05:30:32.972Z,100336.38
2022-10-23T05:33:37.149Z,100329.50
2022-10-23T05:36:39.595Z,100325.91
2022-10-23T05:39:42.028Z,100313.59
2022-10-23T05:42:48.998Z,100308.28
2022-10-23T05:45:55.148Z,100309.84
2022-10-23T05:49:08.490Z,100312.31
2022-10-23T05:52:38.901Z,100313.09
2022-10-23T05:55:49.863Z,100308.59
2022-10-23T05:59:10.321Z,100307.66
2022-10-23T06:02:27.001Z,100306.69
2022-10-23T06:05:35.461Z,100301.25
2022-10-23T06:08:55.243Z,100286.31
2022-10-23T06:11:57.181Z,100289.16
2022-10-23T06:14:58.856Z,100288.44
2022-10-23T06:18:12.199Z,100294.22
2022-10-23T06:21:26.000Z,100288.28
2022-10-23T06:24:27.868Z,100270.84
2022-10-23T06:27:34.944Z,100277.13
2022-10-23T06:30:39.585Z,100284.31
2022-10-23T06:33:41.656Z,100279.88
2022-10-23T06:36:44.885Z,100279.09
2022-10-23T06:40:05.918Z,100280.66
2022-10-23T06:43:27.298Z,100268.94
2022-10-23T06:46:51.318Z,100269.78
2022-10-23T06:50:14.546Z,100275.81
2022-10-23T06:53:19.420Z,100275.09
2022-10-23T06:56:29.087Z,100272.91
2022-10-23T06:59:30.658Z,100280.78
2022-10-23T07:02:32.052Z,100295.44
2022-10-23T07:05:33.562Z,100282.03
2022-10-23T07:08:36.054Z,100284.56
2022-10-23T07:11:44.210Z,100289.75
2022-10-23T07:14:45.896Z,100282.56
2022-10-23T07:17:47.343Z,100278.78
2022-10-23T07:20:51.002Z,100290.88
2022-10-23T07:23:52.473Z,100301.94
2022-10-23T07:26:55.795Z,100302.13
2022-10-23T07:30:00.146Z,100314.22
2022-10-23T07:33:05.548Z,100314.28
2022-10-23T07:36:29.568Z,100317.06
2022-10-23T07:39:30.986Z,100309.63
2022-10-23T07:42:32.563Z,100299.16
2022-10-23T07:45:34.022Z,100288.44
2022-10-23T07:48:42.334Z,100285.72
2022-10-23T07:51:47.504Z,100307.31
2022-10-23T07:54:52.329Z,100313.47
2022-10-23T07:57:55.096Z,100305.28
2022-10-23T08:01:16.431Z,100311.38
2022-10-23T08:04:19.416Z,100308.53
2022-10-23T08:07:43.680Z,100298.50
2022-10-23T08:10:49.742Z,100293.44
2022-10-23T08:13:58.447Z,100281.28
2022-10-23T08:17:04.696Z,100275.22
2022-10-23T08:20:26.405Z,100265.59
2022-10-23T08:23:28.749Z,100273.78
2022-10-23T08:26:30.511Z,100267.25
2022-10-23T08:29:32.002Z,100278.28
2022-10-23T08:32:33.945Z,100269.50
2022-10-23T08:35:38.273Z,100271.81
2022-10-23T08:38:40.805Z,100274.50
2022-10-23T08:41:51.112Z,100268.78
2022-10-23T08:45:02.136Z,100277.72
2022-10-23T08:48:18.482Z,100270.28
2022-10-23T08:51:49.052Z,100256.19
2022-10-23T08:55:15.822Z,100256.19
2022-10-23T08:58:23.681Z,100243.81
2022-10-23T09:01:38.524Z,100236.78
2022-10-23T09:04:43.053Z,100226.09
2022-10-23T09:07:54.695Z,100229.31
2022-10-23T09:11:01.796Z,100230.59
2022-10-23T09:14:34.649Z,100226.22
2022-10-23T09:17:42.208Z,100220.91
2022-10-23T09:20:47.208Z,100220.31
2022-10-23T09:23:48.660Z,100221.19
2022-10-23T09:26:53.015Z,100221.19
2022-10-23T09:29:55.864Z,100225.25
2022-10-23T09:32:57.847Z,100238.16
2022-10-23T09:36:06.450Z,100230.34
2022-10-23T09:39:22.492Z,100235.91
2022-10-23T09:42:25.777Z,100236.81
2022-10-23T09:45:34.568Z,100237.50
2022-10-23T09:48:42.126Z,100235.81
2022-10-23T09:51:52.690Z,100228.38
2022-10-23T09:54:58.145Z,100220.16
2022-10-23T09:57:59.940Z,100216.19
2022-10-23T10:01:02.268Z,100216.72
2022-10-23T10:04:38.468Z,100219.38
2022-10-23T10:07:39.957Z,100205.31
2022-10-23T10:10:47.666Z,100210.41
2022-10-23T10:14:35.202Z,100202.06
2022-10-23T10:17:47.518Z,100191.97
2022-10-23T10:21:02.488Z,100193.16
2022-10-23T10:24:49.337Z,100207.66
2022-10-23T10:28:21.509Z,100207.97
2022-10-23T10:31:44.267Z,100201.00
2022-10-23T10:34:59.382Z,100198.19
2022-10-23T10:38:12.092Z,100188.47
2022-10-23T10:41:22.562Z,100174.19
2022-10-23T10:44:40.597Z,100167.53
2022-10-23T10:48:09.980Z,100166.06
2022-10-23T10:51:34.331Z,100156.84
2022-10-23T10:54:54.225Z,100149.69
2022-10-23T10:58:02.626Z,100151.16
2022-10-23T11:01:14.378Z,100163.66
2022-10-23T11:04:31.717Z,100162.09
2022-10-23T11:07:42.971Z,100162.16
2022-10-23T11:10:49.325Z,100173.47
2022-10-23T11:13:53.150Z,100171.16
2022-10-23T11:17:16.812Z,100168.72
2022-10-23T11:20:33.404Z,100152.41
2022-10-23T11:23:56.954Z,100143.66
2022-10-23T11:27:26.460Z,100117.91
2022-10-23T11:31:11.885Z,100107.47
2022-10-23T11:34:41.670Z,100122.56
2022-10-23T11:37:43.635Z,100135.19
2022-10-23T11:44:01.389Z,100128.47
2022-10-23T11:47:24.872Z,100101.50
2022-10-23T11:50:49.393Z,100099.25
2022-10-23T11:53:50.930Z,100113.50
2022-10-23T11:57:11.648Z,100098.03
2022-10-23T12:00:23.094Z,100080.13
2022-10-23T12:03:30.419Z,100075.50
2022-10-23T12:06:52.416Z,100072.06
2022-10-23T12:10:06.391Z,100069.78
2022-10-23T12:13:36.448Z,100062.97
2022-10-23T12:16:38.224Z,100059.28
2022-10-23T12:19:55.767Z,100053.59
2022-10-23T12:23:15.406Z,100051.06
2022-10-23T12:26:20.580Z,100058.34
2022-10-23T12:29:48.450Z,100038.88
2022-10-23T12:33:08.402Z,100045.81
2022-10-23T12:36:42.757Z,100034.47
2022-10-23T12:39:51.501Z,100022.59
2022-10-23T12:42:55.651Z,100025.25
2022-10-23T12:46:03.778Z,100024.63
2022-10-23T12:49:17.049Z,100019.53
2022-10-23T12:52:20.956Z,100009.47
2022-10-23T12:55:24.425Z,100010.66
2022-10-23T12:58:31.958Z,100012.81
2022-10-23T13:01:39.369Z,100002.44
2022-10-23T13:04:43.174Z,99991.13
2022-10-23T13:07:47.232Z,99982.59
2022-10-23T13:10:51.413Z,99965.69
2022-10-23T13:13:54.356Z,99977.50
2022-10-23T13:17:04.502Z,99965.13
2022-10-23T13:20:17.814Z,99963.22
2022-10-23T13:23:28.010Z,99964.59
2022-10-23T13:26:44.867Z,99961.06
2022-10-23T13:29:46.255Z,99948.06
2022-10-23T13:32:47.658Z,99956.97
2022-10-23T13:36:00.641Z,99962.69
2022-10-23T13:39:11.248Z,99952.91
2022-10-23T13:42:14.498Z,99946.97
2022-10-23T13:45:22.724Z,99942.38
2022-10-23T13:48:24.346Z,99937.28
2022-10-23T13:51:28.477Z,99927.81
2022-10-23T13:54:30.512Z,99930.50
2022-10-23T13:57:31.908Z,99920.75
2022-10-23T14:00:33.331Z,99913.94
2022-10-23T14:03:35.401Z,99908.59
2022-10-23T14:06:38.104Z,99908.09
2022-10-23T14:09:39.492Z,99890.81
2022-10-23T14:12:42.127Z,99898.97
2022-10-23T14:15:43.850Z,99886.38
2022-10-23T14:18:45.353Z,99897.69
2022-10-23T14:21:46.726Z,99896.25
2022-10-23T14:24:48.104Z,99887.16
2022-10-23T14:27:49.645Z,99884.75
2022-10-23T14:30:51.085Z,99885.84
2022-10-23T14:33:55.940Z,99889.81
2022-10-23T14:37:08.060Z,99885.72
2022-10-23T14:40:10.607Z,99897.91
2022-10-23T14:43:12.024Z,99900.59
2022-10-23T14:46:16.178Z,99900.59
2022-10-23T14:49:17.607Z,99898.16
2022-10-23T14:52:19.110Z,99890.25
2022-10-23T14:55:20.628Z,99881.22
2022-10-23T14:58:24.149Z,99889.25
2022-10-23T15:01:25.616Z,99888.78
2022-10-23T15:04:27.174Z,99879.19
2022-10-23T15:07:28.557Z,99871.88
2022-10-23T15:10:29.967Z,99870.03
2022-10-23T15:13:31.469Z,99867.63
2022-10-23T15:16:33.219Z,99857.06
2022-10-23T15:19:34.628Z,99863.38
2022-10-23T15:22:36.125Z,99867.28
2022-10-23T15:25:40.484Z,99850.75
2022-10-23T15:28:41.873Z,99835.69
2022-10-23T15:31:47.275Z,99841.16
2022-10-23T15:34:49.645Z,99837.03
2022-10-23T15:37:51.128Z,99821.81
2022-10-23T15:40:58.545Z,99822.06
2022-10-23T15:44:02.043Z,99806.25
2022-10-23T15:47:03.602Z,99805.28
2022-10-23T15:50:05.429Z,99807.97
2022-10-23T15:53:06.913Z,99808.84
2022-10-23T15:56:08.293Z,99802.88
2022-10-23T15:59:09.698Z,99791.47
2022-10-23T16:02:12.044Z,99799.22
2022-10-23T16:05:13.542Z,99792.66
2022-10-23T16:08:14.955Z,99794.16
2022-10-23T16:11:22.396Z,99798.31
2022-10-23T16:14:23.788Z,99784.31
2022-10-23T16:17:25.195Z,99788.13
2022-10-23T16:20:26.613Z,99780.31
2022-10-23T16:23:28.318Z,99783.25
2022-10-23T16:26:30.325Z,99777.81
2022-10-23T16:29:31.802Z,99782.06
2022-10-23T16:32:33.308Z,99777.94
2022-10-23T16:35:36.608Z,99776.84
2022-10-23T16:38:46.547Z,99761.38
2022-10-23T16:41:48.033Z,99752.03
2022-10-23T16:44:52.461Z,99747.25
2022-10-23T16:47:53.902Z,99742.59
2022-10-23T16:50:55.363Z,99753.81
2022-10-23T16:53:57.881Z,99759.78
2022-10-23T16:56:59.356Z,99750.19
2022-10-23T17:00:00.737Z,99768.66
2022-10-23T17:03:03.286Z,99768.06
2022-10-23T17:06:08.850Z,99787.63
2022-10-23T17:09:12.438Z,99800.53
2022-10-23T17:12:14.794Z,99811.22
2022-10-23T17:15:16.640Z,99803.69
2022-10-23T17:18:18.198Z,99811.59
2022-10-23T17:21:21.232Z,99818.78
2022-10-23T17:24:23.516Z,99826.09
2022-10-23T17:27:24.910Z,99811.13
2022-10-23T17:30:26.452Z,99824.13
2022-10-23T17:33:27.969Z,99854.06
2022-10-23T17:36:31.408Z,99876.72
2022-10-23T17:39:32.834Z,99922.28
2022-10-23T17:42:34.254Z,99950.72
2022-10-23T17:45:36.432Z,99978.94
2022-10-23T17:48:47.486Z,100000.25
2022-10-23T17:51:52.628Z,100026.38
2022-10-23T17:54:54.021Z,100056.69
2022-10-23T17:57:55.469Z,100088.41
2022-10-23T18:00:57.052Z,100078.03
2022-10-23T18:04:03.963Z,100062.75
2022-10-23T18:07:05.428Z,100059.28
2022-10-23T18:10:07.328Z,100051.59
2022-10-23T18:13:08.793Z,100038.69
2022-10-23T18:16:11.585Z,100004.44
2022-10-23T18:19:18.056Z,100011.91
2022-10-23T18:25:25.968Z,100058.63
2022-10-23T18:28:28.586Z,100051.56
2022-10-23T18:31:30.290Z,100029.28
2022-10-23T18:34:31.729Z,100023.00
2022-10-23T18:37:34.729Z,100022.78
2022-10-23T18:40:41.268Z,99974.25
2022-10-23T18:43:44.734Z,99993.16
2022-10-23T18:46:47.930Z,100007.19
2022-10-23T18:49:49.372Z,99991.31
2022-10-23T18:52:50.775Z,100010.41
2022-10-23T18:55:52.311Z,99998.47
2022-10-23T18:58:56.163Z,100006.13
2022-10-23T19:01:57.702Z,100005.38
2022-10-23T19:04:59.289Z,99998.38
2022-10-23T19:08:00.782Z,99983.34
2022-10-23T19:11:03.356Z,99977.34
2022-10-23T19:14:05.542Z,99982.09
2022-10-23T19:17:17.120Z,99974.56
2022-10-23T19:20:20.601Z,99959.09
2022-10-23T19:23:22.296Z,99965.41
2022-10-23T19:26:23.686Z,99949.63
2022-10-23T19:29:26.573Z,99949.41
2022-10-23T19:32:28.075Z,99956.53
2022-10-23T19:35:29.469Z,99962.97
2022-10-23T19:38:31.418Z,99966.91
2022-10-23T19:41:32.853Z,99970.72
2022-10-23T19:44:34.716Z,99989.63
2022-10-23T19:47:36.571Z,99987.25
2022-10-23T19:50:38.055Z,99975.72
2022-10-23T19:53:40.787Z,99967.91
2022-10-23T19:56:42.405Z,99966.97
2022-10-23T19:59:48.452Z,99967.91
2022-10-23T20:02:52.760Z,99962.59
2022-10-23T20:05:56.614Z,99969.00
2022-10-23T20:08:57.998Z,99975.38
2022-10-23T20:12:00.466Z,99969.53
2022-10-23T20:15:01.931Z,99978.38
2022-10-23T20:18:04.187Z,99987.41
2022-10-23T20:21:05.744Z,99983.69
2022-10-23T20:24:08.309Z,99988.41
2022-10-23T20:27:10.786Z,99983.06
2022-10-23T20:30:12.626Z,99979.66
2022-10-23T20:33:14.024Z,99977.94
2022-10-23T20:36:28.053Z,99976.13
2022-10-23T20:39:29.900Z,99970.88
2022-10-23T20:42:31.327Z,99976.22
2022-10-23T20:45:33.949Z,99964.06
2022-10-23T20:48:40.120Z,99980.91
2022-10-23T20:51:42.112Z,99991.47
2022-10-23T20:54:43.668Z,99992.19
2022-10-23T20:57:45.429Z,99995.84
2022-10-23T21:00:47.567Z,99996.91
2022-10-23T21:03:51.163Z,99990.09
2022-10-23T21:07:10.705Z,99984.09
2022-10-23T21:10:12.647Z,99992.84
2022-10-23T21:13:14.114Z,99993.78
2022-10-23T21:16:27.617Z,100002.97
2022-10-23T21:19:30.015Z,100009.44
2022-10-23T21:22:31.426Z,100016.47
2022-10-23T21:25:32.832Z,99997.94
2022-10-23T21:28:34.795Z,100000.69
2022-10-23T21:31:36.188Z,100000.88
2022-10-23T21:34:37.686Z,100010.59
2022-10-23T21:37:39.070Z,100017.72
2022-10-23T21:40:40.522Z,100000.69
2022-10-23T21:43:42.485Z,99995.38
2022-10-23T21:46:44.110Z,99999.94
2022-10-23T21:49:45.529Z,99997.28
2022-10-23T21:52:51.710Z,100009.09
2022-10-23T21:55:54.083Z,99996.81
2022-10-23T21:58:56.577Z,100003.88
2022-10-23T22:01:58.197Z,99981.38
2022-10-23T22:04:59.676Z,99997.44
2022-10-23T22:08:01.082Z,100001.06
2022-10-23T22:11:05.366Z,99989.97
2022-10-23T22:14:07.439Z,100006.69
2022-10-23T22:17:08.926Z,100007.88
2022-10-23T22:20:10.578Z,99976.09
2022-10-23T22:23:11.952Z,99985.25
2022-10-23T22:26:32.965Z,99992.44
2022-10-23T22:29:35.283Z,99999.81
2022-10-23T22:32:36.652Z,100003.22
2022-10-23T22:35:38.061Z,100014.31
2022-10-23T22:38:39.816Z,100015.59
2022-10-23T22:41:43.113Z,100020.91
2022-10-23T22:44:44.527Z,100021.66
2022-10-23T22:47:46.074Z,100018.13
2022-10-23T22:50:47.512Z,100001.50
2022-10-23T22:53:48.964Z,100005.97
2022-10-23T22:56:50.356Z,100012.38
2022-10-23T22:59:51.728Z,100022.44
2022-10-23T23:02:53.889Z,100017.91
2022-10-23T23:05:55.329Z,100015.63
2022-10-23T23:08:56.828Z,100023.06
2022-10-23T23:11:58.276Z,100021.44
2022-10-23T23:15:00.212Z,100018.06
2022-10-23T23:18:01.591Z,100017.19
2022-10-23T23:21:04.728Z,100011.97
2022-10-23T23:24:06.229Z,100013.69
2022-10-23T23:27:07.695Z,100018.91
2022-10-23T23:30:09.660Z,100031.47
2022-10-23T23:33:11.956Z,100020.63
2022-10-23T23:36:16.420Z,100015.31
2022-10-23T23:39:17.910Z,100019.78
2022-10-23T23:42:19.347Z,100011.09
2022-10-23T23:45:20.743Z,100023.88
2022-10-23T23:48:22.352Z,100021.28
2022-10-23T23:51:25.181Z,100037.09
2022-10-23T23:54:26.644Z,100037.25
2022-10-23T23:57:28.109Z,100042.56
